Time;durP1;ratioP1;P1;durP2;ratioP2;P2;SDS_P1;SDS_P2;PMS_P1;PMS_P2;Temp;Humidity;BMP_temperature;BMP_pressure;BME280_temperature;BME280_humidity;BME280_pressure;Samples;Min_cycle;Max_cycle;Signal;HPM_P1;HPM_P2
2024/01/20 00:01:57;;;;;;;;;;;;;;;20.51;18.41;98715.41;5112849;28;19998;-84
2024/01/20 00:04:23;;;;;;;;;;;;;;;20.10;18.94;98716.81;5107362;28;20414;-84
2024/01/20 00:06:49;;;;;;;;;;;;;;;20.34;18.84;98716.16;5111979;28;20010;-84
2024/01/20 00:09:15;;;;;;;;;;;;;;;20.79;18.45;98704.31;5114078;28;19916;-83
2024/01/20 00:11:41;;;;;;;;;;;;;;;20.59;18.45;98708.66;5107334;28;19916;-83
2024/01/20 00:14:08;;;;;;;;;;;;;;;20.70;18.37;98711.47;5113435;28;19958;-84
2024/01/20 00:16:34;;;;;;;;;;;;;;;20.32;18.63;98712.97;5112106;28;19926;-84
2024/01/20 00:19:00;;;;;;;;;;;;;;;20.45;18.98;98714.19;5109447;28;20361;-84
2024/01/20 00:21:26;;;;;;;;;;;;;;;20.41;18.63;98710.59;5110657;28;19919;-84
2024/01/20 00:23:52;;;;;;;;;;;;;;;21.25;18.19;98693.19;5111406;28;19916;-84
2024/01/20 00:26:18;;;;;;;;;;;;;;;20.70;18.49;98720.63;5113904;28;19922;-84
2024/01/20 00:28:44;;;;;;;;;;;;;;;20.48;18.55;98719.78;5113411;28;19968;-84
2024/01/20 00:31:10;;;;;;;;;;;;;;;20.89;18.15;98714.66;5112953;28;19928;-84
2024/01/20 00:33:37;;;;;;;;;;;;;;;21.06;18.09;98713.94;5113059;28;19922;-84
2024/01/20 00:36:03;;;;;;;;;;;;;;;21.17;18.04;98709.13;5107693;28;19928;-84
2024/01/20 00:38:30;;;;;;;;;;;;;;;21.62;17.68;98709.47;5111456;28;20371;-84
2024/01/20 00:40:56;;;;;;;;;;;;;;;21.51;17.63;98711.50;5104812;28;19920;-83
2024/01/20 00:43:22;;;;;;;;;;;;;;;21.62;17.38;98721.47;5108988;28;19919;-83
2024/01/20 00:45:48;;;;;;;;;;;;;;;21.56;17.57;98719.47;5101587;28;20402;-83
2024/01/20 00:48:14;;;;;;;;;;;;;;;21.44;17.82;98722.69;5113261;28;19927;-82
2024/01/20 00:50:40;;;;;;;;;;;;;;;22.00;17.29;98717.81;5112768;28;19920;-83
2024/01/20 00:53:07;;;;;;;;;;;;;;;21.79;17.49;98720.63;5093911;28;20382;-83
2024/01/20 00:55:33;;;;;;;;;;;;;;;21.16;17.93;98721.50;5100946;28;19920;-83
2024/01/20 00:57:59;;;;;;;;;;;;;;;21.51;17.76;98717.91;5107717;28;19965;-83
2024/01/20 01:00:25;;;;;;;;;;;;;;;21.79;17.25;98723.44;5113288;28;20428;-83
2024/01/20 01:02:51;;;;;;;;;;;;;;;21.63;17.62;98731.47;5113954;28;19919;-83
2024/01/20 01:05:17;;;;;;;;;;;;;;;21.51;17.71;98734.66;5092861;28;19920;-83
2024/01/20 01:07:43;;;;;;;;;;;;;;;21.82;17.39;98733.78;5105981;28;20367;-84
2024/01/20 01:10:10;;;;;;;;;;;;;;;21.91;17.44;98739.78;5091153;28;19924;-84
2024/01/20 01:12:36;;;;;;;;;;;;;;;21.01;18.32;98747.78;5104179;28;20454;-83
2024/01/20 01:15:02;;;;;;;;;;;;;;;20.87;18.37;98750.56;5111895;28;19922;-83
2024/01/20 01:17:28;;;;;;;;;;;;;;;20.68;18.60;98743.34;5116696;28;20330;-83
2024/01/20 01:19:54;;;;;;;;;;;;;;;20.50;18.74;98759.25;5115151;28;19930;-83
2024/01/20 01:22:20;;;;;;;;;;;;;;;20.86;18.24;98754.56;5116937;28;19920;-83
2024/01/20 01:24:46;;;;;;;;;;;;;;;20.85;18.43;98755.75;5116720;28;19923;-83
2024/01/20 01:27:12;;;;;;;;;;;;;;;21.06;18.32;98752.22;5111609;28;19920;-83
2024/01/20 01:29:38;;;;;;;;;;;;;;;21.69;17.92;98748.59;5114574;28;20306;-83
2024/01/20 01:32:04;;;;;;;;;;;;;;;22.52;17.23;98743.16;5108968;28;20368;-83
2024/01/20 01:34:30;;;;;;;;;;;;;;;22.55;17.00;98747.94;5096463;28;19927;-84
2024/01/20 01:36:56;;;;;;;;;;;;;;;22.50;17.07;98740.75;5115279;28;19919;-83
2024/01/20 01:39:22;;;;;;;;;;;;;;;22.99;16.81;98742.50;5115904;28;20010;-83
2024/01/20 01:41:48;;;;;;;;;;;;;;;23.43;16.47;98739.00;5112537;28;19919;-83
2024/01/20 01:44:14;;;;;;;;;;;;;;;23.62;16.19;98738.38;5106890;28;19961;-83
2024/01/20 01:46:40;;;;;;;;;;;;;;;23.63;16.14;98731.59;5115477;28;19919;-84
2024/01/20 01:49:07;;;;;;;;;;;;;;;23.31;16.40;98731.81;5110814;28;20399;-83
2024/01/20 01:51:33;;;;;;;;;;;;;;;23.23;16.27;98732.31;5115341;28;20362;-83
2024/01/20 01:54:01;;;;;;;;;;;;;;;23.14;16.33;98729.97;5116747;28;19912;-83
2024/01/20 01:56:28;;;;;;;;;;;;;;;23.12;16.37;98728.81;5097493;28;20018;-83
2024/01/20 01:58:55;;;;;;;;;;;;;;;22.84;16.69;98741.00;5111837;28;20394;-83
2024/01/20 02:01:21;;;;;;;;;;;;;;;22.75;16.77;98734.25;5109936;28;19926;-82
2024/01/20 02:03:47;;;;;;;;;;;;;;;22.80;16.92;98729.00;5114897;28;19919;-82
2024/01/20 02:06:13;;;;;;;;;;;;;;;22.75;16.77;98739.88;5107153;28;19920;-83
2024/01/20 02:08:39;;;;;;;;;;;;;;;22.88;16.76;98740.97;5109663;28;19963;-83
2024/01/20 02:11:06;;;;;;;;;;;;;;;22.91;16.88;98740.97;5095775;28;19999;-83
2024/01/20 02:13:32;;;;;;;;;;;;;;;22.98;16.66;98754.91;5110138;28;19927;-83
2024/01/20 02:15:59;;;;;;;;;;;;;;;22.71;16.84;98742.66;5113437;28;19920;-83
2024/01/20 02:18:25;;;;;;;;;;;;;;;22.82;16.91;98751.03;5114256;28;19930;-83
2024/01/20 02:20:51;;;;;;;;;;;;;;;22.52;17.16;98748.75;5110061;28;19919;-83
2024/01/20 02:23:17;;;;;;;;;;;;;;;22.46;17.22;98750.38;5111610;28;19927;-83
2024/01/20 02:25:43;;;;;;;;;;;;;;;22.08;17.34;98749.31;5115162;28;19928;-83
2024/01/20 02:28:09;;;;;;;;;;;;;;;22.28;17.43;98758.84;5109723;28;19920;-83
2024/01/20 02:30:35;;;;;;;;;;;;;;;22.32;17.22;98761.63;5114231;28;19919;-83
2024/01/20 02:33:01;;;;;;;;;;;;;;;22.02;17.22;98762.94;5113953;28;19996;-83
2024/01/20 02:35:27;;;;;;;;;;;;;;;21.54;17.76;98761.00;5114520;28;19923;-83
2024/01/20 02:37:53;;;;;;;;;;;;;;;21.39;17.80;98754.63;5109765;28;19923;-83
2024/01/20 02:40:19;;;;;;;;;;;;;;;21.21;18.10;98759.41;5110869;28;19919;-83
2024/01/20 02:42:45;;;;;;;;;;;;;;;20.49;18.51;98762.44;5112312;28;19955;-83
2024/01/20 02:45:11;;;;;;;;;;;;;;;21.04;18.36;98757.38;5114390;28;19959;-83
2024/01/20 02:47:37;;;;;;;;;;;;;;;20.47;18.75;98760.03;5113281;28;19932;-84
2024/01/20 02:50:03;;;;;;;;;;;;;;;20.89;18.29;98758.53;5112001;28;19920;-84
2024/01/20 02:52:29;;;;;;;;;;;;;;;20.94;18.29;98758.94;5113427;28;20379;-85
2024/01/20 02:54:55;;;;;;;;;;;;;;;21.71;17.48;98760.97;5107938;28;19943;-84
2024/01/20 02:57:21;;;;;;;;;;;;;;;21.54;17.42;98758.97;5113357;28;19920;-84
2024/01/20 02:59:47;;;;;;;;;;;;;;;21.46;17.58;98751.03;5109648;28;20371;-84
2024/01/20 03:02:14;;;;;;;;;;;;;;;21.81;17.14;98762.97;5114163;28;19916;-84
2024/01/20 03:04:40;;;;;;;;;;;;;;;21.89;17.04;98758.19;5113102;28;19923;-84
2024/01/20 03:07:06;;;;;;;;;;;;;;;21.92;17.03;98758.16;5108429;28;19916;-85
2024/01/20 03:09:32;;;;;;;;;;;;;;;22.14;16.71;98758.09;5114005;28;19920;-84
2024/01/20 03:11:58;;;;;;;;;;;;;;;22.32;16.49;98762.44;5108214;28;20402;-84
2024/01/20 03:14:24;;;;;;;;;;;;;;;22.47;16.33;98761.19;5109173;28;19915;-84
2024/01/20 03:16:50;;;;;;;;;;;;;;;22.46;16.24;98767.16;5102228;28;19923;-84
2024/01/20 03:19:16;;;;;;;;;;;;;;;22.27;16.43;98771.25;5110132;28;20387;-84
2024/01/20 03:21:42;;;;;;;;;;;;;;;22.24;16.43;98771.25;5111699;28;19919;-84
2024/01/20 03:24:10;;;;;;;;;;;;;;;22.30;16.75;98778.81;5108274;28;19927;-84
2024/01/20 03:26:36;;;;;;;;;;;;;;;22.02;17.08;98782.50;5112601;28;19972;-84
2024/01/20 03:29:02;;;;;;;;;;;;;;;21.61;16.84;98784.13;5111519;28;20383;-84
2024/01/20 03:31:28;;;;;;;;;;;;;;;21.42;17.33;98780.97;5113334;28;20381;-84
2024/01/20 03:33:54;;;;;;;;;;;;;;;20.95;17.61;98780.09;5088298;28;19924;-84
2024/01/20 03:36:21;;;;;;;;;;;;;;;21.13;17.33;98780.13;5113436;28;20314;-84
2024/01/20 03:38:47;;;;;;;;;;;;;;;21.28;17.25;98778.97;5104309;28;19919;-84
2024/01/20 03:41:13;;;;;;;;;;;;;;;21.43;16.90;98780.56;5113010;28;19923;-84
2024/01/20 03:43:39;;;;;;;;;;;;;;;21.51;16.89;98775.78;5113001;28;19920;-84
2024/01/20 03:46:05;;;;;;;;;;;;;;;21.69;16.99;98776.53;5113319;28;19920;-84
2024/01/20 03:48:32;;;;;;;;;;;;;;;21.91;16.62;98781.72;5110564;28;20329;-84
2024/01/20 03:50:58;;;;;;;;;;;;;;;21.93;16.40;98781.34;5113516;28;20009;-84
2024/01/20 03:53:24;;;;;;;;;;;;;;;21.81;16.57;98788.13;5113370;28;19915;-83
2024/01/20 03:55:50;;;;;;;;;;;;;;;21.74;16.39;98781.72;5109622;28;20337;-84
2024/01/20 03:58:16;;;;;;;;;;;;;;;21.78;16.17;98779.72;5101373;28;19973;-84
2024/01/20 04:00:43;;;;;;;;;;;;;;;21.80;16.23;98785.69;5112829;28;19920;-84
2024/01/20 04:03:09;;;;;;;;;;;;;;;21.73;16.57;98785.72;5108515;28;19912;-84
2024/01/20 04:05:36;;;;;;;;;;;;;;;21.73;16.43;98780.13;5111486;28;19927;-83
2024/01/20 04:08:03;;;;;;;;;;;;;;;21.30;16.98;98782.16;5110718;28;19922;-84
2024/01/20 04:10:29;;;;;;;;;;;;;;;21.04;16.74;98788.91;5113053;28;19919;-83
2024/01/20 04:12:55;;;;;;;;;;;;;;;20.85;17.17;98783.66;5112046;28;19916;-84
2024/01/20 04:15:21;;;;;;;;;;;;;;;20.96;17.18;98781.69;5090424;28;20279;-83
2024/01/20 04:17:47;;;;;;;;;;;;;;;20.82;17.48;98776.06;5112632;28;19955;-83
2024/01/20 04:20:13;;;;;;;;;;;;;;;20.90;17.11;98774.91;5112862;28;19920;-83
2024/01/20 04:22:39;;;;;;;;;;;;;;;21.04;16.99;98780.53;5113262;28;19943;-83
2024/01/20 04:25:05;;;;;;;;;;;;;;;21.02;17.01;98782.09;5113132;28;19924;-82
2024/01/20 04:27:33;;;;;;;;;;;;;;;21.03;16.93;98780.88;5111947;28;19920;-83
2024/01/20 04:30:00;;;;;;;;;;;;;;;20.93;17.03;98785.28;5090679;28;19966;-83
2024/01/20 04:32:26;;;;;;;;;;;;;;;20.83;17.12;98785.25;5101669;28;20464;-83
2024/01/20 04:34:52;;;;;;;;;;;;;;;20.53;17.33;98788.34;5111816;28;20450;-83
2024/01/20 04:37:18;;;;;;;;;;;;;;;20.36;17.75;98791.84;5113276;28;19926;-83
2024/01/20 04:39:44;;;;;;;;;;;;;;;20.77;17.12;98784.03;5114106;28;19919;-83
2024/01/20 04:42:10;;;;;;;;;;;;;;;20.48;17.30;98792.31;5110973;28;19934;-83
2024/01/20 04:44:36;;;;;;;;;;;;;;;20.53;17.21;98794.72;5116295;28;19919;-83
2024/01/20 04:47:02;;;;;;;;;;;;;;;20.52;17.40;98800.69;5116894;28;19920;-83
2024/01/20 04:49:28;;;;;;;;;;;;;;;19.95;17.77;98807.94;5116437;28;19978;-83
2024/01/20 04:51:55;;;;;;;;;;;;;;;20.00;17.85;98804.78;5115629;28;19972;-83
2024/01/20 04:54:21;;;;;;;;;;;;;;;20.10;17.68;98806.84;5114299;28;20383;-83
2024/01/20 04:56:47;;;;;;;;;;;;;;;19.98;17.80;98807.97;5116450;28;19951;-83
2024/01/20 04:59:13;;;;;;;;;;;;;;;19.41;18.27;98807.94;5115097;28;19919;-83
2024/01/20 05:01:39;;;;;;;;;;;;;;;19.45;18.21;98804.00;5115624;28;20459;-83
2024/01/20 05:04:05;;;;;;;;;;;;;;;19.61;18.13;98807.31;5109467;28;19916;-83
2024/01/20 05:06:31;;;;;;;;;;;;;;;19.27;18.42;98806.59;5116011;28;20276;-83
2024/01/20 05:08:57;;;;;;;;;;;;;;;19.39;18.14;98808.34;5113490;28;19926;-83
2024/01/20 05:11:23;;;;;;;;;;;;;;;19.53;18.19;98810.44;5111095;28;19927;-84
2024/01/20 05:13:49;;;;;;;;;;;;;;;19.97;17.74;98811.16;5115747;28;20272;-83
2024/01/20 05:16:15;;;;;;;;;;;;;;;20.00;17.64;98813.13;5110807;28;19923;-83
2024/01/20 05:18:42;;;;;;;;;;;;;;;20.27;17.55;98811.75;5107418;28;19930;-84
2024/01/20 05:21:11;;;;;;;;;;;;;;;20.25;17.33;98805.75;5098140;28;19966;-84
2024/01/20 05:23:37;;;;;;;;;;;;;;;20.39;17.25;98810.59;5113398;28;19923;-84
2024/01/20 05:26:03;;;;;;;;;;;;;;;20.37;17.24;98821.34;5112786;28;20435;-83
2024/01/20 05:28:29;;;;;;;;;;;;;;;20.61;16.99;98815.06;5115765;28;19915;-83
2024/01/20 05:30:55;;;;;;;;;;;;;;;20.02;17.58;98819.91;5115687;28;19920;-83
2024/01/20 05:33:21;;;;;;;;;;;;;;;20.01;17.48;98820.31;5115459;28;20031;-83
2024/01/20 05:35:47;;;;;;;;;;;;;;;20.27;17.32;98816.50;5114875;28;19923;-83
2024/01/20 05:38:14;;;;;;;;;;;;;;;20.07;17.46;98826.34;5112294;28;19920;-83
2024/01/20 05:40:40;;;;;;;;;;;;;;;20.24;17.22;98832.03;5114980;28;20383;-83
2024/01/20 05:43:06;;;;;;;;;;;;;;;19.86;17.59;98824.22;5109504;28;19920;-83
2024/01/20 05:45:32;;;;;;;;;;;;;;;20.02;17.45;98832.28;5112850;28;19958;-82
2024/01/20 05:47:58;;;;;;;;;;;;;;;19.91;17.52;98832.19;5112407;28;20340;-83
2024/01/20 05:50:24;;;;;;;;;;;;;;;20.05;17.16;98837.84;5115589;28;19981;-83
2024/01/20 05:52:50;;;;;;;;;;;;;;;19.87;17.55;98834.16;5097394;28;19923;-82
2024/01/20 05:55:17;;;;;;;;;;;;;;;19.58;17.99;98840.72;5115560;28;20282;-82
2024/01/20 05:57:43;;;;;;;;;;;;;;;19.92;17.49;98844.94;5110483;28;19928;-83
2024/01/20 06:00:09;;;;;;;;;;;;;;;19.92;17.53;98842.97;5113191;28;19920;-82
2024/01/20 06:02:36;;;;;;;;;;;;;;;20.11;17.33;98855.03;5115487;28;19920;-83
2024/01/20 06:05:02;;;;;;;;;;;;;;;19.77;17.69;98852.41;5111056;28;20010;-82
2024/01/20 06:07:28;;;;;;;;;;;;;;;18.94;18.36;98862.34;5107476;28;19926;-83
2024/01/20 06:09:54;;;;;;;;;;;;;;;19.33;18.21;98860.75;5114349;28;19959;-82
2024/01/20 06:12:20;;;;;;;;;;;;;;;19.58;17.82;98869.34;5117312;27;20456;-84
2024/01/20 06:14:46;;;;;;;;;;;;;;;20.00;17.46;98866.91;5115295;28;20022;-82
2024/01/20 06:17:12;;;;;;;;;;;;;;;20.44;16.92;98866.78;5112894;28;20022;-82
2024/01/20 06:19:38;;;;;;;;;;;;;;;20.33;17.01;98881.88;5107872;28;19924;-81
2024/01/20 06:22:04;;;;;;;;;;;;;;;20.10;17.18;98873.75;5102456;28;19928;-82
2024/01/20 06:24:30;;;;;;;;;;;;;;;19.26;18.06;98880.16;5107323;28;19976;-82
2024/01/20 06:26:56;;;;;;;;;;;;;;;19.67;17.79;98877.41;5113954;28;20391;-83
2024/01/20 06:29:22;;;;;;;;;;;;;;;20.06;17.21;98881.28;5114679;28;19920;-83
2024/01/20 06:31:48;;;;;;;;;;;;;;;20.54;16.96;98887.56;5109091;28;19919;-83
2024/01/20 06:34:14;;;;;;;;;;;;;;;20.47;16.88;98879.16;5108231;28;19927;-83
2024/01/20 06:36:41;;;;;;;;;;;;;;;19.87;17.13;98878.75;5107284;28;19991;-83
2024/01/20 06:39:07;;;;;;;;;;;;;;;20.10;17.12;98881.28;5114014;28;20007;-84
2024/01/20 06:41:33;;;;;;;;;;;;;;;20.26;16.92;98891.00;5106359;28;20035;-83
2024/01/20 06:43:59;;;;;;;;;;;;;;;20.41;17.02;98886.31;5112951;28;19927;-84
2024/01/20 06:46:25;;;;;;;;;;;;;;;20.74;16.65;98890.88;5089252;28;19919;-84
2024/01/20 06:48:51;;;;;;;;;;;;;;;20.70;16.63;98896.41;5107983;28;20263;-84
2024/01/20 06:51:22;;;;;;;;;;;;;;;20.57;16.65;98893.19;5093957;28;19926;-84
2024/01/20 06:53:52;;;;;;;;;;;;;;;19.32;17.77;98912.03;5113406;28;20003;-85
2024/01/20 06:56:18;;;;;;;;;;;;;;;18.40;18.81;98910.09;5112480;28;20024;-84
2024/01/20 06:58:44;;;;;;;;;;;;;;;19.15;18.23;98909.88;5094360;28;19920;-85
2024/01/20 07:01:10;;;;;;;;;;;;;;;19.27;18.14;98906.84;5106734;27;19947;-83
2024/01/20 07:03:36;;;;;;;;;;;;;;;20.05;17.25;98915.13;5099541;28;19968;-84
2024/01/20 07:06:03;;;;;;;;;;;;;;;20.80;16.83;98912.41;5112629;28;20430;-86
2024/01/20 07:08:29;;;;;;;;;;;;;;;20.99;16.54;98919.69;5112591;28;20248;-85
2024/01/20 07:10:55;;;;;;;;;;;;;;;20.74;16.66;98924.34;5111761;28;20406;-84
2024/01/20 07:13:21;;;;;;;;;;;;;;;20.58;16.69;98921.88;5108273;28;19920;-87
2024/01/20 07:15:47;;;;;;;;;;;;;;;19.25;17.90;98914.75;5099280;28;20011;-87
2024/01/20 07:18:13;;;;;;;;;;;;;;;18.30;18.94;98926.59;5105106;28;20098;-88
2024/01/20 07:20:39;;;;;;;;;;;;;;;18.04;19.33;98921.06;5100944;28;20347;-87
2024/01/20 07:23:05;;;;;;;;;;;;;;;18.94;18.34;98919.97;5081451;28;19916;-86
2024/01/20 07:25:36;;;;;;;;;;;;;;;18.85;18.52;98928.59;5098746;28;20291;-86
2024/01/20 07:28:03;;;;;;;;;;;;;;;18.49;18.73;98941.22;5094722;28;19919;-87
2024/01/20 07:30:29;;;;;;;;;;;;;;;18.07;19.34;98929.44;5093049;28;20380;-87
2024/01/20 07:32:58;;;;;;;;;;;;;;;18.02;19.79;98929.75;5093559;28;19916;-88
2024/01/20 07:35:24;;;;;;;;;;;;;;;18.15;19.40;98938.69;5096183;28;19929;-87
2024/01/20 07:37:50;;;;;;;;;;;;;;;16.47;21.41;98954.47;5102822;28;20371;-87
2024/01/20 07:40:17;;;;;;;;;;;;;;;17.15;20.60;98954.75;5097415;28;19928;-86
2024/01/20 07:42:43;;;;;;;;;;;;;;;17.34;20.81;98959.47;5104185;28;19962;-86
2024/01/20 07:45:09;;;;;;;;;;;;;;;16.77;21.47;98972.19;5098891;28;20367;-85
2024/01/20 07:47:35;;;;;;;;;;;;;;;16.59;21.63;98971.00;5106954;27;20010;-87
2024/01/20 07:50:02;;;;;;;;;;;;;;;16.94;21.34;98963.41;5111474;27;19920;-88
2024/01/20 07:52:28;;;;;;;;;;;;;;;18.33;19.85;98956.44;5110378;28;19969;-87
2024/01/20 07:54:54;;;;;;;;;;;;;;;19.61;19.01;98951.34;5106716;28;19916;-87
2024/01/20 07:57:20;;;;;;;;;;;;;;;21.26;17.82;98951.72;5110152;27;20386;-86
2024/01/20 07:59:46;;;;;;;;;;;;;;;22.12;17.00;98947.91;5110348;27;19919;-86
2024/01/20 08:02:13;;;;;;;;;;;;;;;21.80;16.54;98943.06;5109527;27;19926;-87
2024/01/20 08:04:39;;;;;;;;;;;;;;;22.39;16.31;98949.88;5091260;28;20363;-86
2024/01/20 08:07:05;;;;;;;;;;;;;;;22.20;16.53;98950.28;5102223;28;19927;-87
2024/01/20 08:09:31;;;;;;;;;;;;;;;22.10;16.55;98953.88;5110043;27;19928;-86
2024/01/20 08:11:57;;;;;;;;;;;;;;;21.97;16.45;98958.28;5106264;27;19920;-87
2024/01/20 08:14:23;;;;;;;;;;;;;;;22.21;16.75;98959.47;5108341;28;19919;-86
2024/01/20 08:16:49;;;;;;;;;;;;;;;22.24;16.48;98962.25;5102455;28;19920;-86
2024/01/20 08:19:15;;;;;;;;;;;;;;;22.18;16.41;98963.88;5106151;28;19924;-87
2024/01/20 08:21:42;;;;;;;;;;;;;;;21.13;17.01;98964.44;5107544;28;19923;-86
2024/01/20 08:24:08;;;;;;;;;;;;;;;21.38;17.43;98962.53;5101057;28;19920;-86
2024/01/20 08:26:34;;;;;;;;;;;;;;;21.42;16.88;98973.72;5108650;28;19939;-86
2024/01/20 08:29:01;;;;;;;;;;;;;;;21.14;17.34;98972.41;5108820;28;19920;-86
2024/01/20 08:31:27;;;;;;;;;;;;;;;20.31;17.94;98974.31;5111455;28;19922;-86
2024/01/20 08:33:54;;;;;;;;;;;;;;;20.52;17.99;98982.00;5102339;28;19967;-86
2024/01/20 08:36:20;;;;;;;;;;;;;;;20.24;18.08;98990.16;5102648;28;19939;-87
2024/01/20 08:38:46;;;;;;;;;;;;;;;20.51;17.98;98983.22;5086774;28;19927;-87
2024/01/20 08:41:12;;;;;;;;;;;;;;;21.36;17.26;98976.09;5104679;28;19919;-86
2024/01/20 08:43:41;;;;;;;;;;;;;;;21.08;17.35;98995.53;5099222;28;19934;-87
2024/01/20 08:46:07;;;;;;;;;;;;;;;21.76;17.20;98989.78;5106250;28;19919;-87
2024/01/20 08:48:34;;;;;;;;;;;;;;;22.56;16.57;98985.44;5111531;28;19934;-88
2024/01/20 08:51:00;;;;;;;;;;;;;;;23.11;15.82;98976.50;5106699;28;19919;-88
2024/01/20 08:53:26;;;;;;;;;;;;;;;22.93;16.01;98982.19;5097258;28;19924;-88
2024/01/20 08:55:52;;;;;;;;;;;;;;;22.17;16.24;98989.47;5110767;28;19923;-87
2024/01/20 08:58:18;;;;;;;;;;;;;;;22.79;16.18;98995.41;5102923;28;19920;-87
2024/01/20 09:00:44;;;;;;;;;;;;;;;23.38;15.76;98991.66;5099351;28;19931;-87
2024/01/20 09:03:10;;;;;;;;;;;;;;;23.09;15.55;99004.94;5111656;28;19927;-87
2024/01/20 09:05:36;;;;;;;;;;;;;;;22.76;16.23;98999.00;5104568;28;20006;-88
2024/01/20 09:08:05;;;;;;;;;;;;;;;22.72;16.24;99001.81;5108222;28;19998;-88
2024/01/20 09:10:31;;;;;;;;;;;;;;;22.25;17.00;99008.63;5104728;28;19943;-88
2024/01/20 09:12:57;;;;;;;;;;;;;;;22.79;16.42;99015.00;5103006;28;20019;-89
2024/01/20 09:15:23;;;;;;;;;;;;;;;23.27;15.71;99008.47;5109558;28;19996;-89
2024/01/20 09:17:49;;;;;;;;;;;;;;;23.35;15.86;99010.06;5102599;28;20382;-89
2024/01/20 09:20:15;;;;;;;;;;;;;;;22.55;16.17;99017.41;5107127;28;20007;-86
2024/01/20 09:22:41;;;;;;;;;;;;;;;22.37;15.87;99013.03;5095763;28;20525;-89
2024/01/20 09:25:07;;;;;;;;;;;;;;;22.23;16.43;99010.22;5102729;28;19924;-87
2024/01/20 09:27:33;;;;;;;;;;;;;;;22.31;16.78;99007.03;5100613;28;20030;-88
2024/01/20 09:29:59;;;;;;;;;;;;;;;22.87;16.39;99011.00;5108884;28;20378;-89
2024/01/20 09:32:26;;;;;;;;;;;;;;;23.27;16.06;99008.47;5111409;28;20295;-89
2024/01/20 09:34:52;;;;;;;;;;;;;;;23.91;15.90;99000.56;5115835;28;20092;-89
2024/01/20 09:37:18;;;;;;;;;;;;;;;24.35;15.90;99008.25;5111819;28;19927;-87
2024/01/20 09:39:44;;;;;;;;;;;;;;;23.84;15.34;99008.22;5108168;27;20244;-86
2024/01/20 09:42:10;;;;;;;;;;;;;;;22.46;16.38;99019.81;5106850;28;19930;-90
2024/01/20 09:44:37;;;;;;;;;;;;;;;21.66;17.00;99020.47;5112458;28;19928;-89
2024/01/20 09:47:03;;;;;;;;;;;;;;;20.57;18.21;99017.94;5113866;28;19919;-89
2024/01/20 09:49:29;;;;;;;;;;;;;;;21.06;17.67;99026.63;5114862;28;20024;-89
2024/01/20 09:52:02;;;;;;;;;;;;;;;22.10;16.79;99012.59;5105885;28;19988;-89
2024/01/20 09:54:28;;;;;;;;;;;;;;;21.77;16.92;99010.16;5106496;27;19923;-90
2024/01/20 09:56:54;;;;;;;;;;;;;;;21.95;17.95;99014.59;5110260;27;19947;-89
2024/01/20 09:59:20;;;;;;;;;;;;;;;22.23;17.01;99011.03;5108656;28;19962;-87
2024/01/20 10:01:47;;;;;;;;;;;;;;;22.54;16.99;99018.59;5109689;27;19923;-88
2024/01/20 10:04:15;;;;;;;;;;;;;;;22.57;16.68;99006.63;5108717;27;19923;-88
2024/01/20 10:06:41;;;;;;;;;;;;;;;23.40;16.17;99000.44;5086611;28;20279;-88
2024/01/20 10:09:07;;;;;;;;;;;;;;;23.76;15.97;99003.84;5109259;28;19912;-88
2024/01/20 10:11:33;;;;;;;;;;;;;;;21.64;18.23;99006.09;5110497;27;20336;-88
2024/01/20 10:13:59;;;;;;;;;;;;;;;21.77;17.09;99005.38;5115157;27;19998;-88
2024/01/20 10:16:25;;;;;;;;;;;;;;;22.38;16.81;98998.63;5111144;28;19924;-88
2024/01/20 10:18:51;;;;;;;;;;;;;;;22.69;17.11;98999.81;5107240;28;19986;-88
2024/01/20 10:21:17;;;;;;;;;;;;;;;22.08;17.01;99003.03;5111502;28;20026;-88
2024/01/20 10:23:43;;;;;;;;;;;;;;;21.97;16.96;99003.81;5109267;28;20283;-87
2024/01/20 10:26:09;;;;;;;;;;;;;;;22.63;16.83;98987.44;5108324;28;20011;-88
2024/01/20 10:28:35;;;;;;;;;;;;;;;23.00;16.82;98998.16;5107088;28;19947;-88
2024/01/20 10:31:08;;;;;;;;;;;;;;;21.56;17.47;99007.28;5105391;27;19971;-89
2024/01/20 10:33:34;;;;;;;;;;;;;;;21.41;17.65;99000.84;5109579;28;19958;-88
2024/01/20 10:36:02;;;;;;;;;;;;;;;21.28;17.48;98988.44;5114216;28;20371;-88
2024/01/20 10:38:28;;;;;;;;;;;;;;;21.15;17.64;98996.38;5114950;28;20006;-89
2024/01/20 10:40:57;;;;;;;;;;;;;;;21.91;17.27;98985.03;5112261;28;20435;-88
2024/01/20 10:43:26;;;;;;;;;;;;;;;20.36;18.80;98989.88;5110340;28;19920;-88
2024/01/20 10:45:58;;;;;;;;;;;;;;;20.32;18.55;98983.47;5113279;27;20295;-88
2024/01/20 10:48:27;;;;;;;;;;;;;;;20.45;18.98;98993.94;5113965;27;19969;-88
2024/01/20 10:50:57;;;;;;;;;;;;;;;21.31;18.16;98991.25;5102470;28;19920;-89
2024/01/20 10:53:24;;;;;;;;;;;;;;;21.00;18.01;98980.72;5107257;27;19994;-88
2024/01/20 10:55:51;;;;;;;;;;;;;;;20.60;19.11;98981.69;5105797;28;20302;-88
2024/01/20 10:58:19;;;;;;;;;;;;;;;21.39;18.15;98988.47;5093260;28;20375;-89
2024/01/20 11:00:45;;;;;;;;;;;;;;;21.54;18.52;99002.09;5104452;28;19924;-88
2024/01/20 11:03:11;;;;;;;;;;;;;;;20.81;18.68;98994.16;5110238;27;19920;-87
2024/01/20 11:05:37;;;;;;;;;;;;;;;20.80;18.80;98987.78;5094601;28;20022;-88
2024/01/20 11:08:08;;;;;;;;;;;;;;;19.81;20.41;98994.56;5103935;28;19966;-88
2024/01/20 11:10:40;;;;;;;;;;;;;;;19.48;20.11;98987.03;5107286;28;19931;-87
2024/01/20 11:13:10;;;;;;;;;;;;;;;17.53;21.96;98990.00;5113200;28;19919;-87
2024/01/20 11:15:36;;;;;;;;;;;;;;;17.46;27.76;98984.28;5109309;28;19970;-89
2024/01/20 11:18:02;;;;;;;;;;;;;;;19.23;20.31;98972.78;5112261;28;19980;-89
2024/01/20 11:20:32;;;;;;;;;;;;;;;18.54;20.79;98973.47;5102999;27;20010;-90
2024/01/20 11:23:07;;;;;;;;;;;;;;;17.45;22.41;98983.50;5099450;28;19923;-90
2024/01/20 11:25:35;;;;;;;;;;;;;;;17.31;24.33;98985.19;5100407;28;20304;-88
2024/01/20 11:28:01;;;;;;;;;;;;;;;17.03;26.77;98985.41;5103547;28;19974;-89
2024/01/20 11:30:29;;;;;;;;;;;;;;;17.77;22.23;98982.13;5107922;28;19930;-88
2024/01/20 11:32:56;;;;;;;;;;;;;;;18.86;23.87;98973.91;5106396;28;20291;-88
2024/01/20 11:35:22;;;;;;;;;;;;;;;19.90;19.57;98962.41;5099591;28;20003;-87
2024/01/20 11:37:49;;;;;;;;;;;;;;;20.39;19.41;98964.81;5109523;27;19927;-87
2024/01/20 11:40:15;;;;;;;;;;;;;;;19.36;20.28;98959.47;5110860;27;19920;-88
2024/01/20 11:42:41;;;;;;;;;;;;;;;19.75;19.71;98946.72;5107093;28;19920;-88
2024/01/20 11:45:07;;;;;;;;;;;;;;;20.05;19.32;98948.59;5111255;28;19924;-86
2024/01/20 11:47:33;;;;;;;;;;;;;;;21.20;20.03;98942.94;5106949;28;20018;-88
2024/01/20 11:49:59;;;;;;;;;;;;;;;19.24;20.72;98924.28;5102736;28;19951;-87
2024/01/20 11:52:25;;;;;;;;;;;;;;;20.24;19.23;98937.19;5096711;28;20455;-85
2024/01/20 11:54:52;;;;;;;;;;;;;;;20.83;21.64;98939.56;5106339;27;20005;-89
2024/01/20 11:57:19;;;;;;;;;;;;;;;21.33;17.89;98938.56;5111354;28;20014;-86
2024/01/20 11:59:45;;;;;;;;;;;;;;;19.39;19.73;98921.69;5110235;28;20018;-87
2024/01/20 12:02:11;;;;;;;;;;;;;;;20.02;19.30;98924.25;5108945;28;19931;-86
2024/01/20 12:07:40;;;;;;;;;;;;;;;20.91;18.58;98918.84;5102103;28;20363;-88
2024/01/20 12:10:07;;;;;;;;;;;;;;;21.33;17.93;98921.03;5108261;28;19923;-88
2024/01/20 12:12:33;;;;;;;;;;;;;;;22.07;17.12;98917.53;5115529;28;19922;-88
2024/01/20 12:14:59;;;;;;;;;;;;;;;21.80;17.43;98917.88;5101141;28;19928;-88
2024/01/20 12:17:25;;;;;;;;;;;;;;;22.08;17.34;98919.91;5107813;27;19927;-88
2024/01/20 12:19:51;;;;;;;;;;;;;;;22.03;17.36;98909.94;5106562;28;20384;-89
2024/01/20 12:22:17;;;;;;;;;;;;;;;23.13;16.75;98918.06;5097190;28;19920;-88
2024/01/20 12:24:47;;;;;;;;;;;;;;;23.96;15.88;98912.38;5109442;28;19916;-89
2024/01/20 12:27:14;;;;;;;;;;;;;;;24.00;15.87;98910.31;5111151;28;19916;-89
2024/01/20 12:29:40;;;;;;;;;;;;;;;23.88;16.12;98908.81;5102836;28;19972;-89
2024/01/20 12:32:06;;;;;;;;;;;;;;;23.77;16.09;98899.69;5111346;28;19920;-89
2024/01/20 12:34:32;;;;;;;;;;;;;;;23.66;16.28;98909.38;5102331;28;20007;-89
2024/01/20 12:36:58;;;;;;;;;;;;;;;23.53;15.96;98914.66;5108586;28;20398;-90
2024/01/20 12:39:25;;;;;;;;;;;;;;;23.25;16.48;98914.81;5090753;28;20071;-91
2024/01/20 12:41:52;;;;;;;;;;;;;;;23.00;16.51;98920.53;5116334;28;19980;-90
2024/01/20 12:44:18;;;;;;;;;;;;;;;23.31;16.40;98922.38;5102078;28;19915;-92
2024/01/20 12:46:44;;;;;;;;;;;;;;;23.42;16.48;98925.16;5112764;28;19983;-91